Time;durP1;ratioP1;P1;durP2;ratioP2;P2;SDS_P1;SDS_P2;PMS_P1;PMS_P2;Temp;Humidity;BMP_temperature;BMP_pressure;BME280_temperature;BME280_humidity;BME280_pressure;Samples;Min_cycle;Max_cycle;Signal;HPM_P1;HPM_P2
2022/03/04 00:00:13;;;;;;;1.73;0.90;;;18.80;62.00;;;;;;5031174;28;20028;-65
2022/03/04 00:02:39;;;;;;;3.13;1.10;;;18.70;62.00;;;;;;5031044;28;20030;-65
2022/03/04 00:05:05;;;;;;;1.70;0.80;;;18.70;62.00;;;;;;5032362;28;20033;-65
2022/03/04 00:07:31;;;;;;;2.05;1.20;;;18.70;62.10;;;;;;5031969;28;20022;-65
2022/03/04 00:09:56;;;;;;;2.05;1.00;;;18.70;62.10;;;;;;5032297;28;20018;-65
2022/03/04 00:12:22;;;;;;;1.58;1.10;;;18.70;62.10;;;;;;5031051;28;20100;-65
2022/03/04 00:14:48;;;;;;;3.38;0.93;;;18.70;62.10;;;;;;5032073;28;20484;-65
2022/03/04 00:17:13;;;;;;;1.52;0.90;;;18.70;62.10;;;;;;5032042;28;20033;-65
2022/03/04 00:19:39;;;;;;;2.45;0.90;;;18.70;62.10;;;;;;5032051;28;20030;-65
2022/03/04 00:22:05;;;;;;;2.60;0.90;;;18.70;62.20;;;;;;5040846;28;20049;-65
2022/03/04 00:24:31;;;;;;;1.40;0.70;;;18.70;62.20;;;;;;5033886;28;20384;-65
2022/03/04 00:26:56;;;;;;;1.63;0.82;;;18.70;62.20;;;;;;5052051;28;20032;-65
2022/03/04 00:29:22;;;;;;;1.67;0.90;;;18.70;62.20;;;;;;5052672;28;20017;-65
2022/03/04 00:31:47;;;;;;;3.38;1.20;;;18.70;62.20;;;;;;5054402;28;20021;-65
2022/03/04 00:34:13;;;;;;;1.85;1.05;;;18.70;62.20;;;;;;5054749;28;20033;-65
2022/03/04 00:36:39;;;;;;;2.97;0.80;;;18.70;62.20;;;;;;5054622;28;20033;-65
2022/03/04 00:39:09;;;;;;;3.00;1.20;;;18.70;62.30;;;;;;5054424;28;20445;-65
2022/03/04 00:41:35;;;;;;;2.38;1.10;;;18.70;62.30;;;;;;5037771;28;20124;-65
2022/03/04 00:44:00;;;;;;;2.00;0.82;;;18.70;62.30;;;;;;5055625;28;20104;-65
2022/03/04 00:46:26;;;;;;;1.10;0.70;;;18.60;62.30;;;;;;5055370;28;20100;-65
2022/03/04 00:48:52;;;;;;;2.40;0.80;;;18.70;62.40;;;;;;5054289;28;20052;-65
2022/03/04 00:51:17;;;;;;;2.03;1.00;;;18.70;62.40;;;;;;5055573;28;20025;-66
2022/03/04 00:53:43;;;;;;;1.90;0.90;;;18.70;62.40;;;;;;5054322;28;20079;-66
2022/03/04 00:56:09;;;;;;;1.00;0.88;;;18.60;62.40;;;;;;5054196;28;20107;-66
2022/03/04 00:58:35;;;;;;;2.45;0.80;;;18.60;62.40;;;;;;5054248;28;20480;-65
2022/03/04 01:01:01;;;;;;;2.22;0.88;;;18.60;62.40;;;;;;5053950;28;20009;-65
2022/03/04 01:03:27;;;;;;;1.17;0.60;;;18.60;62.40;;;;;;5037394;28;20028;-66
2022/03/04 01:05:53;;;;;;;2.95;1.10;;;18.60;62.30;;;;;;5054263;28;20029;-66
2022/03/04 01:08:18;;;;;;;1.35;0.80;;;18.60;62.40;;;;;;5055094;28;20025;-65
2022/03/04 01:10:44;;;;;;;1.95;0.88;;;18.60;62.40;;;;;;5055021;28;20479;-65
2022/03/04 01:13:10;;;;;;;3.03;0.90;;;18.60;62.40;;;;;;5054133;28;20486;-65
2022/03/04 01:15:36;;;;;;;2.20;1.08;;;18.60;62.50;;;;;;5054666;28;20037;-66
2022/03/04 01:18:02;;;;;;;3.20;0.95;;;18.60;62.50;;;;;;5054884;28;20104;-66
2022/03/04 01:20:29;;;;;;;3.42;0.90;;;18.60;62.50;;;;;;5054945;28;20028;-66
2022/03/04 01:22:54;;;;;;;1.75;0.93;;;18.60;62.50;;;;;;5048119;28;20037;-66
2022/03/04 01:25:20;;;;;;;1.20;0.75;;;18.60;62.60;;;;;;5033783;28;20411;-65
2022/03/04 01:27:46;;;;;;;2.35;0.93;;;18.60;62.60;;;;;;5050169;28;20021;-65
2022/03/04 01:30:14;;;;;;;2.20;0.77;;;18.60;62.60;;;;;;5034802;28;20030;-65
2022/03/04 01:32:39;;;;;;;1.60;0.73;;;18.60;62.60;;;;;;5034685;28;20022;-65
2022/03/04 01:35:05;;;;;;;1.30;0.80;;;18.60;62.60;;;;;;5050214;28;20420;-65
2022/03/04 01:37:31;;;;;;;1.73;0.70;;;18.50;62.50;;;;;;5049964;28;20021;-65
2022/03/04 01:39:57;;;;;;;2.40;0.88;;;18.50;62.50;;;;;;5034763;28;20075;-65
2022/03/04 01:42:22;;;;;;;1.73;1.02;;;18.50;62.60;;;;;;5033860;28;20037;-65
2022/03/04 01:44:48;;;;;;;1.40;0.65;;;18.50;62.60;;;;;;5049700;28;20048;-65
2022/03/04 01:47:14;;;;;;;2.22;1.10;;;18.50;62.60;;;;;;5033629;28;20049;-65
2022/03/04 01:49:40;;;;;;;2.00;0.70;;;18.50;62.60;;;;;;5049718;28;20495;-65
2022/03/04 01:52:06;;;;;;;2.30;1.00;;;18.50;62.70;;;;;;5033212;28;20021;-65
2022/03/04 01:54:32;;;;;;;1.52;0.75;;;18.50;62.70;;;;;;5049930;28;20029;-65
2022/03/04 01:56:58;;;;;;;2.80;0.75;;;18.50;62.70;;;;;;5033197;28;20377;-65
2022/03/04 01:59:24;;;;;;;2.10;0.82;;;18.50;62.70;;;;;;5049705;28;20480;-65
2022/03/04 02:01:51;;;;;;;1.40;0.73;;;18.50;62.70;;;;;;5049688;28;20037;-65
2022/03/04 02:04:19;;;;;;;2.05;0.80;;;18.40;62.70;;;;;;5049416;28;20460;-65
2022/03/04 02:06:45;;;;;;;2.17;0.85;;;18.40;62.70;;;;;;5034015;28;20033;-65
2022/03/04 02:09:11;;;;;;;2.15;0.88;;;18.50;62.80;;;;;;5049790;28;20017;-65
2022/03/04 02:11:38;;;;;;;2.05;1.00;;;18.50;62.80;;;;;;5033905;28;20021;-65
2022/03/04 02:14:04;;;;;;;1.08;0.63;;;18.50;62.80;;;;;;5049040;28;20484;-65
2022/03/04 02:16:38;;;;;;;1.88;0.70;;;18.50;62.80;;;;;;5034084;28;20095;-65
2022/03/04 02:19:04;;;;;;;1.83;0.85;;;18.40;62.80;;;;;;5032689;28;20535;-65
2022/03/04 02:21:31;;;;;;;1.10;0.80;;;18.40;62.80;;;;;;5049052;28;20120;-65
2022/03/04 02:23:56;;;;;;;1.77;0.85;;;18.40;62.80;;;;;;5037598;28;20029;-65
2022/03/04 02:26:22;;;;;;;5.50;0.90;;;18.40;62.80;;;;;;5033484;28;20380;-65
2022/03/04 02:28:48;;;;;;;2.70;0.80;;;18.40;62.80;;;;;;5016114;28;20476;-65
2022/03/04 02:31:17;;;;;;;1.80;0.80;;;18.40;62.80;;;;;;5033893;28;20079;-65
2022/03/04 02:33:43;;;;;;;2.13;0.90;;;18.40;62.80;;;;;;5016059;28;20021;-65
2022/03/04 02:36:08;;;;;;;2.28;1.13;;;18.40;62.80;;;;;;5033623;28;20029;-65
2022/03/04 02:38:34;;;;;;;1.33;0.77;;;18.40;62.80;;;;;;5016094;28;20049;-65
2022/03/04 02:41:00;;;;;;;1.75;0.88;;;18.40;62.90;;;;;;5032025;28;20035;-65
2022/03/04 02:43:25;;;;;;;0.98;0.77;;;18.40;62.90;;;;;;5033477;28;20065;-65
2022/03/04 02:45:52;;;;;;;1.60;0.65;;;18.40;62.90;;;;;;5033361;28;20103;-65
2022/03/04 02:48:18;;;;;;;5.18;0.90;;;18.40;62.90;;;;;;5032020;28;20024;-65
2022/03/04 02:50:43;;;;;;;2.28;0.82;;;18.30;62.80;;;;;;5015766;28;20026;-65
2022/03/04 02:53:09;;;;;;;1.77;0.65;;;18.40;62.90;;;;;;5032432;28;20377;-65
2022/03/04 02:55:35;;;;;;;2.55;0.70;;;18.40;62.90;;;;;;5015134;28;20052;-65
2022/03/04 02:58:01;;;;;;;1.63;0.90;;;18.40;62.90;;;;;;5032119;28;20053;-65
2022/03/04 03:00:26;;;;;;;1.35;0.75;;;18.40;62.90;;;;;;5032072;28;20029;-65
2022/03/04 03:02:52;;;;;;;4.03;1.10;;;18.40;62.90;;;;;;5032910;28;20543;-65
2022/03/04 03:05:17;;;;;;;1.33;0.75;;;18.40;62.90;;;;;;5031906;28;20029;-65
2022/03/04 03:07:43;;;;;;;4.68;0.75;;;18.40;63.00;;;;;;5033014;28;20032;-65
2022/03/04 03:10:09;;;;;;;1.88;1.13;;;18.40;63.00;;;;;;5031944;28;20029;-65
2022/03/04 03:12:35;;;;;;;1.67;0.88;;;18.30;62.90;;;;;;5031754;28;20503;-65
2022/03/04 03:15:01;;;;;;;2.30;0.90;;;18.30;62.90;;;;;;5032856;28;20025;-65
2022/03/04 03:17:27;;;;;;;2.33;0.70;;;18.30;62.90;;;;;;5032648;28;20036;-65
2022/03/04 03:19:52;;;;;;;1.58;0.60;;;18.30;63.00;;;;;;5031596;28;20404;-65
2022/03/04 03:22:19;;;;;;;0.77;0.50;;;18.30;63.00;;;;;;5032501;28;20053;-65
2022/03/04 03:24:45;;;;;;;3.40;0.85;;;18.30;63.00;;;;;;5032411;28;20034;-65
2022/03/04 03:27:11;;;;;;;1.45;0.80;;;18.30;63.00;;;;;;5048209;28;20107;-65
2022/03/04 03:29:37;;;;;;;2.10;0.80;;;18.30;63.00;;;;;;5032609;28;20080;-65
2022/03/04 03:32:03;;;;;;;1.55;0.70;;;18.30;63.00;;;;;;5047990;28;20032;-65
2022/03/04 03:34:28;;;;;;;2.05;0.95;;;18.30;63.00;;;;;;5048195;28;20020;-65
2022/03/04 03:36:54;;;;;;;1.67;0.80;;;18.30;63.00;;;;;;5047927;28;20104;-65
2022/03/04 03:39:20;;;;;;;2.47;0.85;;;18.30;63.00;;;;;;5032590;28;20036;-65
2022/03/04 03:41:45;;;;;;;2.13;0.88;;;18.30;63.10;;;;;;5032504;28;20451;-65
2022/03/04 03:44:11;;;;;;;1.42;0.73;;;18.30;63.00;;;;;;5032294;28;20029;-65
2022/03/04 03:46:37;;;;;;;1.50;0.90;;;18.30;63.10;;;;;;5048015;28;20522;-65
2022/03/04 03:49:02;;;;;;;2.40;1.00;;;18.30;63.10;;;;;;5032336;28;20476;-65
2022/03/04 03:51:28;;;;;;;1.55;0.88;;;18.30;63.10;;;;;;5047818;28;20480;-65
2022/03/04 03:53:53;;;;;;;2.95;0.90;;;18.20;63.00;;;;;;5032267;28;20021;-65
2022/03/04 03:56:19;;;;;;;2.42;0.80;;;18.20;63.00;;;;;;5047656;28;20029;-65
2022/03/04 03:58:45;;;;;;;1.92;0.63;;;18.20;63.00;;;;;;5032106;28;20029;-65
2022/03/04 04:01:10;;;;;;;1.42;0.82;;;18.30;63.20;;;;;;5032483;28;20543;-65
2022/03/04 04:03:36;;;;;;;2.88;0.90;;;18.20;63.10;;;;;;5047697;28;20522;-65
2022/03/04 04:06:02;;;;;;;2.58;0.93;;;18.30;63.10;;;;;;5035789;28;20105;-65
2022/03/04 04:08:28;;;;;;;3.88;0.90;;;18.20;63.10;;;;;;5036108;28;20021;-65
2022/03/04 04:10:53;;;;;;;1.35;0.82;;;18.20;63.10;;;;;;5051704;28;20021;-65
2022/03/04 04:13:19;;;;;;;1.67;0.60;;;18.20;63.20;;;;;;5036204;28;20025;-65
2022/03/04 04:15:45;;;;;;;2.15;0.77;;;18.20;63.10;;;;;;5036260;28;20026;-65
2022/03/04 04:18:11;;;;;;;2.13;0.98;;;18.20;63.20;;;;;;5036082;28;20032;-65
2022/03/04 04:20:36;;;;;;;0.85;0.60;;;18.20;63.20;;;;;;5036155;28;20037;-65
2022/03/04 04:23:02;;;;;;;2.00;0.93;;;18.20;63.20;;;;;;5046809;28;20435;-65
2022/03/04 04:25:28;;;;;;;1.25;0.75;;;18.20;63.20;;;;;;5035903;28;20040;-65
2022/03/04 04:27:53;;;;;;;1.75;0.75;;;18.20;63.20;;;;;;5036046;28;20144;-65
2022/03/04 04:30:19;;;;;;;1.60;0.77;;;18.20;63.20;;;;;;5035814;28;20101;-65
2022/03/04 04:32:45;;;;;;;1.02;0.50;;;18.20;63.20;;;;;;5035835;28;20048;-65
2022/03/04 04:35:10;;;;;;;1.05;0.50;;;18.10;63.20;;;;;;5018364;28;20029;-65
2022/03/04 04:37:36;;;;;;;0.90;0.68;;;18.10;63.20;;;;;;5034311;28;20029;-65
2022/03/04 04:40:03;;;;;;;1.55;0.77;;;18.20;63.20;;;;;;5035847;28;20025;-65
2022/03/04 04:42:28;;;;;;;0.93;0.70;;;18.10;63.20;;;;;;5035796;28;20025;-65
2022/03/04 04:44:54;;;;;;;4.00;0.80;;;18.20;63.30;;;;;;5034382;28;20048;-65
2022/03/04 04:47:20;;;;;;;1.83;0.80;;;18.10;63.20;;;;;;5035797;28;20391;-65
2022/03/04 04:49:46;;;;;;;1.52;0.77;;;18.10;63.20;;;;;;5035432;28;20021;-65
2022/03/04 04:52:11;;;;;;;1.42;0.80;;;18.10;63.20;;;;;;5035433;28;20068;-65
2022/03/04 04:54:37;;;;;;;0.98;0.65;;;18.10;63.20;;;;;;5035575;28;20022;-65
2022/03/04 04:57:03;;;;;;;1.80;0.68;;;18.10;63.20;;;;;;5035422;28;20112;-65
2022/03/04 04:59:29;;;;;;;0.77;0.68;;;18.10;63.20;;;;;;5017893;28;20030;-65
2022/03/04 05:01:54;;;;;;;0.90;0.75;;;18.10;63.30;;;;;;5035441;28;20036;-65
2022/03/04 05:04:20;;;;;;;2.35;0.70;;;18.10;63.30;;;;;;5035338;28;20053;-65
2022/03/04 05:06:45;;;;;;;2.42;0.60;;;18.10;63.30;;;;;;5034914;28;20026;-65
2022/03/04 05:09:11;;;;;;;2.17;1.10;;;18.10;63.30;;;;;;5034290;28;20029;-65
2022/03/04 05:11:37;;;;;;;2.17;0.70;;;18.10;63.30;;;;;;5033964;28;20025;-65
2022/03/04 05:14:02;;;;;;;1.85;0.65;;;18.10;63.30;;;;;;5017428;28;20026;-65
2022/03/04 05:16:28;;;;;;;5.00;0.70;;;18.10;63.30;;;;;;5032725;28;20024;-65
2022/03/04 05:18:54;;;;;;;0.90;0.60;;;18.10;63.40;;;;;;5035109;28;20471;-65
2022/03/04 05:21:19;;;;;;;1.70;0.75;;;18.10;63.40;;;;;;5033455;28;20049;-65
2022/03/04 05:24:00;;;;;;;2.42;0.90;;;18.10;63.40;;;;;;5034740;28;20040;-65
2022/03/04 05:26:27;;;;;;;1.25;0.70;;;18.10;63.40;;;;;;5033961;28;20037;-65
2022/03/04 05:28:53;;;;;;;0.75;0.50;;;18.10;63.50;;;;;;5050151;28;20048;-65
2022/03/04 05:31:19;;;;;;;1.55;0.73;;;18.10;63.40;;;;;;5033545;28;20029;-65
2022/03/04 05:33:44;;;;;;;2.10;0.60;;;18.00;63.40;;;;;;5034899;28;20029;-65
2022/03/04 05:36:10;;;;;;;2.47;0.75;;;18.10;63.50;;;;;;5034504;28;20029;-65
2022/03/04 05:38:35;;;;;;;1.50;0.80;;;18.00;63.40;;;;;;5035214;28;20479;-65
2022/03/04 05:41:01;;;;;;;1.60;0.70;;;18.00;63.50;;;;;;5035134;28;20391;-65
2022/03/04 05:43:27;;;;;;;2.38;0.70;;;18.10;63.50;;;;;;5034530;28;20452;-65
2022/03/04 05:45:53;;;;;;;1.25;0.60;;;18.00;63.40;;;;;;5050026;28;20029;-65
2022/03/04 05:48:18;;;;;;;0.77;0.52;;;18.00;63.40;;;;;;5050046;28;20025;-65
2022/03/04 05:50:44;;;;;;;0.88;0.40;;;18.00;63.50;;;;;;5034037;28;20022;-65
2022/03/04 05:53:10;;;;;;;2.63;0.55;;;18.00;63.50;;;;;;5034586;28;20021;-65
2022/03/04 05:55:35;;;;;;;2.00;0.70;;;18.00;63.50;;;;;;5050016;28;20037;-65
2022/03/04 05:58:01;;;;;;;0.90;0.55;;;18.00;63.50;;;;;;5034320;28;20029;-65
2022/03/04 06:00:27;;;;;;;2.08;0.65;;;18.00;63.50;;;;;;5049784;28;20045;-65
2022/03/04 06:02:53;;;;;;;1.35;0.70;;;18.00;63.50;;;;;;5049596;28;20403;-65
2022/03/04 06:05:20;;;;;;;0.93;0.52;;;18.00;63.50;;;;;;5034132;28;20036;-65
2022/03/04 06:07:45;;;;;;;1.02;0.50;;;18.00;63.50;;;;;;5034253;28;20014;-65
2022/03/04 06:10:11;;;;;;;2.13;0.82;;;18.00;63.50;;;;;;5033892;28;20021;-65
2022/03/04 06:12:37;;;;;;;0.98;0.55;;;18.00;63.60;;;;;;5049604;28;20028;-65
2022/03/04 06:15:03;;;;;;;1.85;0.60;;;18.00;63.60;;;;;;5032767;28;20029;-65
2022/03/04 06:17:28;;;;;;;1.65;0.80;;;18.00;63.60;;;;;;5049521;28;20109;-65
2022/03/04 06:19:54;;;;;;;1.25;0.70;;;18.00;63.60;;;;;;5033756;28;20032;-65
2022/03/04 06:22:21;;;;;;;1.20;0.73;;;18.00;63.60;;;;;;5044312;28;20064;-65
2022/03/04 06:24:47;;;;;;;2.97;0.60;;;18.00;63.60;;;;;;5052429;28;20064;-65
2022/03/04 06:27:12;;;;;;;1.10;0.80;;;17.90;63.60;;;;;;5053626;28;20044;-65
2022/03/04 06:29:38;;;;;;;0.90;0.50;;;18.00;63.60;;;;;;5053791;28;20100;-65
2022/03/04 06:32:04;;;;;;;2.03;0.60;;;18.00;63.60;;;;;;5035718;28;20021;-65
2022/03/04 06:34:29;;;;;;;1.08;0.63;;;18.00;63.70;;;;;;5052354;28;20029;-65
2022/03/04 06:36:55;;;;;;;1.02;0.68;;;18.00;63.60;;;;;;5053601;28;20025;-65
2022/03/04 06:39:21;;;;;;;1.10;0.70;;;18.00;63.70;;;;;;5053459;28;20493;-65
2022/03/04 06:41:48;;;;;;;1.45;0.75;;;18.00;63.70;;;;;;5053477;28;20029;-65
2022/03/04 06:44:14;;;;;;;0.75;0.55;;;17.90;63.70;;;;;;5052204;28;20029;-65
2022/03/04 06:46:40;;;;;;;2.40;0.80;;;18.00;63.70;;;;;;5048520;28;20013;-65
2022/03/04 06:49:10;;;;;;;2.38;0.80;;;17.90;63.70;;;;;;5041377;28;20022;-65
2022/03/04 06:51:36;;;;;;;1.75;0.85;;;17.90;63.70;;;;;;5041840;28;20510;-65
2022/03/04 06:54:02;;;;;;;1.02;0.73;;;17.90;63.70;;;;;;5041573;28;20028;-65
2022/03/04 06:56:27;;;;;;;2.35;0.95;;;17.90;63.70;;;;;;5040960;28;20025;-65
2022/03/04 06:58:53;;;;;;;1.35;0.90;;;17.90;63.80;;;;;;5042545;28;20017;-65
2022/03/04 07:01:19;;;;;;;2.33;0.80;;;17.90;63.80;;;;;;5042398;28;20025;-65
2022/03/04 07:03:44;;;;;;;1.58;0.80;;;17.90;63.80;;;;;;5041812;28;20028;-65
2022/03/04 07:06:10;;;;;;;1.65;0.73;;;17.90;63.90;;;;;;5034627;28;20021;-65
2022/03/04 07:08:37;;;;;;;1.75;0.70;;;17.90;63.90;;;;;;5033117;28;20479;-65
2022/03/04 07:11:03;;;;;;;2.28;0.73;;;17.90;63.80;;;;;;5032961;28;20398;-65
2022/03/04 07:13:29;;;;;;;2.08;1.02;;;17.90;63.80;;;;;;5032897;28;20024;-65
2022/03/04 07:15:55;;;;;;;2.97;0.90;;;17.90;63.80;;;;;;5031925;28;20025;-65
2022/03/04 07:18:22;;;;;;;1.58;1.05;;;17.90;63.80;;;;;;5032912;28;20037;-65
2022/03/04 07:20:51;;;;;;;2.08;0.60;;;17.90;63.90;;;;;;5032651;28;20017;-65
2022/03/04 07:23:17;;;;;;;2.00;0.85;;;17.90;63.80;;;;;;5032517;28;20059;-65
2022/03/04 07:25:43;;;;;;;3.28;1.00;;;17.90;63.80;;;;;;5015215;28;20022;-65
2022/03/04 07:28:09;;;;;;;1.02;0.90;;;17.90;63.80;;;;;;5032726;28;20450;-65
2022/03/04 07:30:34;;;;;;;3.72;1.02;;;18.00;63.80;;;;;;5036816;28;20009;-65
2022/03/04 07:33:02;;;;;;;2.10;1.15;;;18.00;63.80;;;;;;5040950;28;20029;-65
2022/03/04 07:35:27;;;;;;;1.55;0.88;;;17.90;63.80;;;;;;5040201;28;20521;-65
2022/03/04 07:37:53;;;;;;;6.57;1.27;;;17.90;63.70;;;;;;5041270;28;20037;-65
2022/03/04 07:40:18;;;;;;;1.85;1.02;;;17.90;63.70;;;;;;5041069;28;20026;-65
2022/03/04 07:42:44;;;;;;;2.30;1.30;;;18.00;63.70;;;;;;5040886;28;20029;-65
2022/03/04 07:45:10;;;;;;;3.78;1.60;;;18.00;63.70;;;;;;5031152;28;20021;-64
2022/03/04 07:47:36;;;;;;;4.35;1.90;;;18.00;63.60;;;;;;5052271;28;20054;-64
2022/03/04 07:50:04;;;;;;;5.43;2.17;;;18.00;63.60;;;;;;5034130;28;20552;-64
2022/03/04 07:52:31;;;;;;;5.80;2.25;;;18.00;63.60;;;;;;5034733;28;20032;-64
2022/03/04 07:55:00;;;;;;;6.18;2.35;;;18.00;63.60;;;;;;5052080;28;20052;-64
2022/03/04 07:57:26;;;;;;;5.22;2.15;;;18.00;63.60;;;;;;5034346;28;20540;-64
2022/03/04 07:59:52;;;;;;;9.55;2.65;;;18.00;63.50;;;;;;5017781;28;20535;-64
2022/03/04 08:02:17;;;;;;;6.35;2.63;;;18.00;63.50;;;;;;5034321;28;20061;-64
2022/03/04 08:04:43;;;;;;;5.28;1.90;;;18.10;63.60;;;;;;5052246;28;20029;-64
2022/03/04 08:07:08;;;;;;;6.43;2.20;;;18.10;63.50;;;;;;5052086;28;20055;-64
2022/03/04 08:09:34;;;;;;;4.65;1.92;;;18.10;63.50;;;;;;5034456;28;20021;-64
2022/03/04 08:12:00;;;;;;;4.50;2.30;;;18.00;63.50;;;;;;5050922;28;20053;-64
2022/03/04 08:14:25;;;;;;;8.18;1.95;;;18.10;63.50;;;;;;5051687;28;20032;-64
2022/03/04 08:16:51;;;;;;;6.43;2.15;;;18.00;63.40;;;;;;5052184;28;20036;-64
2022/03/04 08:19:16;;;;;;;5.45;2.13;;;18.10;63.40;;;;;;5052211;28;20033;-64
2022/03/04 08:21:45;;;;;;;6.72;2.35;;;18.10;63.40;;;;;;5051992;28;20053;-64
2022/03/04 08:24:11;;;;;;;6.53;1.90;;;18.10;63.40;;;;;;5034874;28;20468;-64
2022/03/04 08:26:38;;;;;;;4.18;2.10;;;18.10;63.40;;;;;;5032305;28;20039;-64
2022/03/04 08:29:05;;;;;;;5.22;2.20;;;18.10;63.40;;;;;;5030783;28;20024;-64
2022/03/04 08:31:31;;;;;;;5.68;2.22;;;18.10;63.40;;;;;;5032045;28;20025;-64
2022/03/04 08:33:57;;;;;;;7.68;2.72;;;18.10;63.40;;;;;;5030921;28;20036;-64
2022/03/04 08:36:22;;;;;;;4.32;2.10;;;18.10;63.30;;;;;;5031895;28;20032;-64
2022/03/04 08:38:48;;;;;;;6.03;1.90;;;18.10;63.40;;;;;;5032104;28;20020;-64
2022/03/04 08:41:14;;;;;;;4.78;2.10;;;18.10;63.40;;;;;;5030945;28;20393;-66
2022/03/04 08:43:40;;;;;;;2.60;1.67;;;18.10;63.30;;;;;;5030663;28;20028;-66
2022/03/04 08:46:07;;;;;;;3.83;1.85;;;18.10;63.30;;;;;;5030298;28;20475;-66
2022/03/04 08:48:33;;;;;;;7.55;2.38;;;18.10;63.30;;;;;;5032234;28;20491;-66
2022/03/04 08:50:59;;;;;;;5.03;1.80;;;18.20;63.30;;;;;;5032058;28;20076;-66
2022/03/04 08:53:27;;;;;;;4.10;1.80;;;18.20;63.30;;;;;;5035539;28;20021;-66
2022/03/04 08:55:53;;;;;;;4.72;1.95;;;18.20;64.30;;;;;;5034469;28;20036;-66
2022/03/04 08:58:19;;;;;;;3.88;1.80;;;18.10;63.20;;;;;;5035088;28;20022;-66
2022/03/04 09:00:44;;;;;;;3.67;1.90;;;18.10;63.20;;;;;;5035482;28;20033;-66
2022/03/04 09:03:10;;;;;;;5.32;1.75;;;18.20;63.30;;;;;;5035354;28;20032;-66
2022/03/04 09:05:36;;;;;;;4.85;1.92;;;18.10;64.20;;;;;;5035292;28;20128;-66
2022/03/04 09:08:02;;;;;;;4.82;2.10;;;18.20;63.30;;;;;;5035252;28;20021;-66
2022/03/04 09:10:27;;;;;;;5.88;1.90;;;18.20;63.30;;;;;;5017524;28;20037;-66
2022/03/04 09:12:53;;;;;;;3.95;1.50;;;18.20;63.20;;;;;;5034876;28;20021;-66
2022/03/04 09:15:19;;;;;;;3.85;1.77;;;18.20;63.30;;;;;;5001131;28;20033;-66
2022/03/04 09:17:45;;;;;;;5.50;1.52;;;18.20;63.20;;;;;;5035255;28;20052;-66
2022/03/04 09:20:13;;;;;;;4.50;1.58;;;18.20;63.20;;;;;;5035078;28;20026;-66
2022/03/04 09:22:39;;;;;;;3.22;1.75;;;18.20;63.20;;;;;;5010534;28;20473;-66
2022/03/04 09:25:05;;;;;;;1.85;1.52;;;18.20;63.20;;;;;;5033696;28;20503;-66
2022/03/04 09:27:31;;;;;;;3.05;1.50;;;18.20;63.20;;;;;;5033519;28;20043;-66
2022/03/04 09:29:57;;;;;;;2.50;1.50;;;18.20;63.20;;;;;;5034941;28;20547;-66
2022/03/04 09:32:23;;;;;;;5.85;1.92;;;18.20;63.20;;;;;;5034995;28;20025;-66
2022/03/04 09:34:49;;;;;;;4.03;1.42;;;18.20;63.20;;;;;;5034790;28;20041;-66
2022/03/04 09:37:14;;;;;;;4.15;1.70;;;18.20;64.20;;;;;;5033504;28;20030;-66
2022/03/04 09:39:40;;;;;;;3.63;1.60;;;18.20;63.20;;;;;;5033520;28;20431;-66
2022/03/04 09:42:06;;;;;;;2.83;1.70;;;18.20;63.20;;;;;;5034359;28;20025;-66
2022/03/04 09:44:32;;;;;;;3.67;1.85;;;18.20;63.10;;;;;;5034721;28;20053;-66
2022/03/04 09:46:59;;;;;;;3.42;1.60;;;18.20;63.10;;;;;;5034391;28;20516;-66
2022/03/04 09:49:30;;;;;;;4.10;1.92;;;18.20;63.10;;;;;;5016951;28;20026;-66
2022/03/04 09:51:56;;;;;;;2.70;1.50;;;18.30;63.10;;;;;;5033489;28;20096;-66
2022/03/04 09:54:22;;;;;;;1.95;1.38;;;18.20;63.10;;;;;;5034436;28;20519;-66
2022/03/04 09:56:48;;;;;;;2.58;1.30;;;18.20;63.10;;;;;;5032957;28;20112;-66
2022/03/04 09:59:13;;;;;;;2.67;1.60;;;18.30;63.10;;;;;;5034157;28;20040;-66
2022/03/04 10:01:39;;;;;;;5.55;1.30;;;18.20;63.00;;;;;;5034146;28;20104;-66
2022/03/04 10:04:06;;;;;;;4.05;1.40;;;18.20;63.00;;;;;;5033751;28;20036;-66
2022/03/04 10:06:32;;;;;;;3.03;1.48;;;18.20;63.00;;;;;;5033266;28;20399;-66
2022/03/04 10:08:58;;;;;;;3.47;1.42;;;18.30;63.10;;;;;;5032998;28;20029;-66
2022/03/04 10:11:34;;;;;;;4.38;1.40;;;18.20;63.00;;;;;;5015965;28;20403;-66
2022/03/04 10:14:07;;;;;;;1.55;1.00;;;18.30;63.00;;;;;;5032916;28;20026;-66
2022/03/04 10:16:38;;;;;;;4.47;1.90;;;18.20;63.00;;;;;;5033034;28;20056;-66
2022/03/04 10:19:07;;;;;;;2.67;1.20;;;18.20;63.00;;;;;;5032705;28;20013;-66
2022/03/04 10:21:51;;;;;;;4.13;1.58;;;18.30;63.00;;;;;;5032620;28;20046;-66
2022/03/04 10:24:18;;;;;;;1.83;1.17;;;18.30;62.90;;;;;;5033626;28;20049;-66
2022/03/04 10:26:46;;;;;;;2.45;1.42;;;18.20;63.00;;;;;;5032393;28;20049;-66
2022/03/04 10:29:24;;;;;;;3.05;1.27;;;18.30;63.00;;;;;;5032637;28;20017;-66
2022/03/04 10:32:12;;;;;;;1.92;1.08;;;18.30;63.00;;;;;;5033925;28;20045;-66
2022/03/04 10:34:54;;;;;;;4.15;1.33;;;18.30;62.80;;;;;;5015817;28;20436;-66
2022/03/04 10:37:22;;;;;;;2.53;1.30;;;18.30;62.90;;;;;;5015851;28;20099;-66
2022/03/04 10:40:01;;;;;;;2.70;1.08;;;18.20;62.90;;;;;;5032373;28;20032;-66
2022/03/04 10:42:53;;;;;;;2.53;1.20;;;18.30;62.90;;;;;;5033398;28;20029;-66
2022/03/04 10:45:27;;;;;;;2.53;1.17;;;18.30;62.80;;;;;;5000711;28;20029;-66
2022/03/04 10:47:57;;;;;;;2.42;0.98;;;18.20;62.90;;;;;;5033539;28;20029;-65
2022/03/04 10:50:32;;;;;;;1.98;1.02;;;18.30;63.00;;;;;;5015680;28;20033;-66
2022/03/04 10:53:11;;;;;;;4.07;1.20;;;18.30;62.90;;;;;;5033434;28;20033;-66
2022/03/04 10:55:45;;;;;;;2.55;1.20;;;18.30;62.90;;;;;;5015455;28;20031;-66
2022/03/04 10:58:21;;;;;;;1.40;1.05;;;18.30;62.90;;;;;;5016544;28;20025;-66
2022/03/04 11:00:47;;;;;;;2.20;1.17;;;18.30;62.80;;;;;;5033221;28;20022;-66
2022/03/04 11:03:15;;;;;;;2.78;1.20;;;18.30;62.90;;;;;;5032920;28;20025;-66
2022/03/04 11:05:40;;;;;;;2.10;1.00;;;18.30;62.90;;;;;;5015555;28;20028;-66
2022/03/04 11:08:06;;;;;;;1.80;1.02;;;18.30;62.80;;;;;;5031937;28;20021;-66
2022/03/04 11:10:32;;;;;;;2.20;1.10;;;18.30;62.80;;;;;;5031481;28;20500;-66
2022/03/04 11:12:57;;;;;;;2.63;1.10;;;18.30;62.80;;;;;;5033140;28;20518;-66
2022/03/04 11:15:24;;;;;;;1.48;1.00;;;18.30;62.80;;;;;;5030944;28;20068;-66
2022/03/04 11:17:50;;;;;;;1.90;0.90;;;18.30;62.70;;;;;;5033150;28;20029;-66
2022/03/04 11:20:16;;;;;;;1.95;1.00;;;18.30;62.70;;;;;;5015232;28;20037;-66
2022/03/04 11:22:43;;;;;;;1.38;0.85;;;18.30;62.70;;;;;;5032430;28;20071;-66
2022/03/04 11:25:10;;;;;;;1.20;0.75;;;18.30;62.70;;;;;;5031232;28;20072;-66
2022/03/04 11:27:46;;;;;;;1.20;1.00;;;18.30;62.60;;;;;;5031685;28;20415;-66
2022/03/04 11:30:28;;;;;;;1.88;0.98;;;18.40;62.60;;;;;;5031594;28;20032;-66
2022/03/04 11:33:11;;;;;;;1.73;0.73;;;18.30;62.60;;;;;;5031564;28;20472;-66
2022/03/04 11:35:42;;;;;;;3.70;1.05;;;18.30;62.50;;;;;;5032544;28;20014;-66
2022/03/04 11:38:11;;;;;;;2.28;0.90;;;18.30;62.60;;;;;;5032408;28;20526;-66
2022/03/04 11:40:38;;;;;;;2.15;0.90;;;18.30;62.60;;;;;;5031482;28;20040;-66
2022/03/04 11:43:09;;;;;;;1.35;0.95;;;18.30;62.60;;;;;;5031388;28;20029;-66
2022/03/04 11:45:37;;;;;;;1.30;0.80;;;18.30;62.60;;;;;;5015028;28;20032;-66
2022/03/04 11:48:03;;;;;;;1.48;0.90;;;18.30;62.50;;;;;;5032427;28;20104;-66
2022/03/04 11:50:33;;;;;;;1.67;0.88;;;18.30;62.50;;;;;;5032569;28;20093;-66
2022/03/04 11:53:16;;;;;;;2.05;1.10;;;18.40;62.60;;;;;;5030897;28;20488;-66
2022/03/04 11:56:07;;;;;;;1.85;1.15;;;18.40;62.50;;;;;;5032282;28;20029;-66
2022/03/04 11:58:54;;;;;;;1.75;0.90;;;18.40;62.40;;;;;;5032332;28;20026;-66
2022/03/04 12:01:27;;;;;;;2.55;1.15;;;18.40;62.50;;;;;;5032273;28;20064;-66
2022/03/04 12:04:28;;;;;;;1.60;1.00;;;18.30;62.50;;;;;;5031381;28;20052;-65
2022/03/04 12:07:07;;;;;;;1.55;0.73;;;18.30;62.20;;;;;;4955136;28;20070;-66
2022/03/04 12:09:33;;;;;;;2.08;1.13;;;18.30;62.40;;;;;;4955655;28;20477;-66
2022/03/04 12:12:20;;;;;;;1.30;0.90;;;18.30;62.50;;;;;;4971521;28;20105;-66
2022/03/04 12:15:17;;;;;;;2.05;0.82;;;18.40;62.30;;;;;;4971351;28;20039;-66
2022/03/04 12:18:14;;;;;;;1.52;0.70;;;18.40;62.30;;;;;;4914041;29;20044;-66
2022/03/04 12:20:40;;;;;;;1.35;0.90;;;18.40;62.40;;;;;;4893887;29;20157;-66
2022/03/04 12:23:09;;;;;;;1.17;0.88;;;18.30;62.60;;;;;;4913482;29;20123;-66
2022/03/04 12:25:56;;;;;;;1.02;0.75;;;18.30;62.40;;;;;;4899098;29;20040;-66
2022/03/04 12:28:26;;;;;;;1.00;0.80;;;18.40;62.30;;;;;;4917666;29;20065;-66
2022/03/04 12:31:00;;;;;;;1.20;0.75;;;18.30;62.40;;;;;;4902129;29;20145;-66
2022/03/04 12:33:27;;;;;;;1.27;0.70;;;18.40;62.30;;;;;;4917458;29;20024;-66
2022/03/04 12:35:59;;;;;;;0.98;0.82;;;18.30;62.40;;;;;;4901729;29;20040;-66
2022/03/04 12:38:28;;;;;;;0.65;0.65;;;18.30;62.30;;;;;;4902722;29;20059;-66
2022/03/04 12:40:57;;;;;;;1.55;0.93;;;18.30;62.30;;;;;;4921412;29;20031;-66
2022/03/04 12:43:23;;;;;;;1.17;0.75;;;18.40;62.30;;;;;;4939451;29;20069;-66
2022/03/04 12:45:50;;;;;;;0.88;0.70;;;18.30;62.30;;;;;;4939647;29;20054;-66
2022/03/04 12:48:16;;;;;;;1.08;0.63;;;18.40;62.30;;;;;;4939450;29;20035;-66